AirNav   Everest Fuels
 
 1471 users online  

XA34 Allison Farm Airport
Decatur, Texas, USA

GOING TO DECATUR?


FAA INFORMATION EFFECTIVE 16 JULY 2020

Location

FAA Identifier: XA34
Lat/Long: 33-14-30.0000N 097-25-40.8000W
33-14.500000N 097-25.680000W
33.2416667,-97.4280000
(estimated)
Elevation: 850 ft. / 259 m (estimated)
From city: 9 miles E of DECATUR, TX
Time zone: UTC -5 (UTC -6 during Standard Time)
Zip code: 76234

Airport Operations

Airport use: Private use. Permission required prior to landing
Activation date: 03/2005
Control tower: no
ARTCC: FORT WORTH CENTER
FSS: FORT WORTH FLIGHT SERVICE STATION
Attendance: CONTINUOUS
Wind indicator: yes
Segmented circle: no

Airport Communications

WX AWOS-3 at LUD (8 nm W): 118.225 (940-627-2365)
WX ASOS at DTO (12 nm E): 119.325 (940-383-8457)
WX ASOS at AFW (16 nm S): PHONE 817-491-6188

Nearby radio navigation aids

VOR radial/distance  VOR name  Freq  Var
FUZr323/24.6RANGER VORTAC115.7006E
UKWr126/26.5BOWIE VORTAC117.1506E
TTTr313/29.7MAVERICK VOR/DME113.1006E
CVEr303/33.7COWBOY VOR/DME116.2006E

 
NDB name  Hdg/Dist  Freq  Var  ID
PINCK254/11.925704EDT -.. -

Airport Services

Fuel available: 100LL

Runway Information

Runway 18/36

Dimensions: 3000 x 150 ft. / 914 x 46 m
Surface: turf
RUNWAY 18  RUNWAY 36
Traffic pattern: leftright
Obstructions: 6 ft. fence40 ft. trees, 200 ft. from runway

Airport Ownership and Management from official FAA records

Ownership: Privately-owned
Owner: CLINTON T. PYE
166 CR 4004
DECATUR, TX 76234
Phone 972-273-9606
CO OWNER JENNY PYE.
Manager: CLINTON T. PYE
166 CR 4004
DECATUR, TX 76234
Phone 972-273-9606

Airport Operational Statistics

Aircraft based on the field: 4
Single engine airplanes: 4
    

Additional Remarks

FOR CD CTC REGIONAL APCH AT 972-615-2799.
OWNER DESIRES CHARTING

Instrument Procedures

There are no published instrument procedures at XA34.

Some nearby airports with instrument procedures:

KLUD - Decatur Municipal Airport (8 nm W)
KDTO - Denton Enterprise Airport (12 nm E)
KAFW - Fort Worth Alliance Airport (16 nm S)
4T2 - Kenneth Copeland Airport (16 nm S)
KXBP - Bridgeport Municipal Airport (21 nm W)
 
Loc | Ops | Rwys | IFR | FBO | Links
Com | Nav | Svcs | Stats | Notes

City of Fort Worth
 
Area around XA34 (Allison Farm Airport)
 
Road maps at: MapQuest Bing Google
 
Aerial photo
No photo
 
Sectional chart

 
Airport distance calculator
Flying to Allison Farm Airport? Find the distance to fly.

From to XA34

Sunrise and sunset
Times for 03-Aug-2020
 Local
(UTC-5)
 Zulu
(UTC)
Morning civil twilight06:1911:19
Sunrise06:4611:46
Sunset20:2601:26
Evening civil twilight20:5301:53

Current date and time
Zulu (UTC)  03-Aug-2020 15:16:46
Local (UTC-5)  03-Aug-2020 10:16:46
 
METAR
KLUD 
8nm W 
118.22 940-927-2365
031455Z AUTO 04007KT 10SM CLR 26/16 A3007 RMK AO2 T02630158
KDTO 
12nm E 
031453Z 04007KT 10SM CLR 28/18 A3006 RMK AO2 SLP170 T02780178 50004
KAFW 
17nm S 
031453Z 04009KT 10SM FEW040 FEW090 SCT140 BKN250 28/17 A3005 RMK AO2 SLP160 T02780167 51005
TAF
KAFW 
17nm S 
031120Z 0312/0412 01004KT P6SM VCSH BKN100 FM031500 04008KT P6SM SCT040 BKN100 FM040900 06004KT P6SM VCSH SCT100
NOTAMs
Click for the latest NOTAMs
NOTAMs are issued by the DoD/FAA and will open in a separate window not controlled by AirNav.

 

 
 

Would you like to see your business listed on this page?

 If your business provides an interesting product or service to pilots, flight crews, aircraft, or users of the Allison Farm Airport, you should consider listing it here.  To start the listing process, click on the button below
 
Add a business
 

Other Pages about Allison Farm Airport

Update a link
 
Copyright © AirNav, LLC. All rights reserved. Privacy Policy  Contact